Redwood City, CA (94061)

4:05 PM PDT on May 06, 2015 (GMT -0700)
Portola Valley | | Change Station
CLOSE
Current Station
Personal Weather Station
Location: Portola Valley, CA
Elevation: 1014 ft
Nearby Weather Stations

Elev 1014 ft 37.38 °N, 122.24 °W | Updated 35 seconds ago

Clear
Clear
60.8 °F
Feels Like 60.8 °F
N
4.0
Wind Variable Wind from South
Gusts 4.9 mph

Today
High -- | Low -- °F
--% Chance of Precip.
Yesterday
High -- | Low -- °F
Precip. -- in
6:08 AM 8:03 PM
Waning Gibbous, 92% visible
Pressure 29.86 in
Visibility 10.0 miles
Clouds Few 2000 ft
Dew Point 48 °F
Humidity 62%
Rainfall 0.00 in
Snow Depth Not available.
UV 4.0 out of 12
Pollen 6.60 out of 12
Air Quality Not available.
Flu Activity Sporadic
METAR KSQL 062055Z 25009KT 10SM FEW020 19/08 A2986

More Conditions Fewer Conditions

Pressure 29.86 in
Visibility 10.0 miles
Clouds Few 2000 ft
Dew Point 48 °F
Humidity 62%
Rainfall 0.00 in
Snow Depth Not available.
UV 4.0 out of 12
Pollen 6.60 out of 12
Air Quality Not available.
Flu Activity Sporadic
METAR KSQL 062055Z 25009KT 10SM FEW020 19/08 A2986

More Conditions Fewer Conditions

10-Day Weather Forecast

Almanac

Astronomy

May. 06, 2015 Rise Set
Actual Time
Civil Twilight
Nautical Twilight
Astronomical Twilight
Moon
Length of Visible Light
Length of Day
Tomorrow will be .
, % of the Moon is Illuminated

Today's Extremes

State Highs State Lows

Community

WunderPhotos

Upload Photos

1,819,039 photos uploaded!

WunderBlogs® & News

Nearby

Air Quality

  Air Quality AQ Index Pollutant
Not available.

Snow Depth

Station Depth Elevation

Earthquake Activity

City Distance Mag. Time & Date
Minimum magnitude displayed is 2.5.

Coastal Water Temperatures

Place Temperature

Stations

Nearby Weather Stations

Station Location Temp. Windchill Dew Point Humidity Wind Precip. Elev Updated Type